createdAt,value
2023-02-28T00:01:27.442Z,99.90
2023-02-28T00:03:54.616Z,99.90
2023-02-28T00:06:21.890Z,99.90
2023-02-28T00:08:49.207Z,99.90
2023-02-28T00:11:16.929Z,99.90
2023-02-28T00:13:49.640Z,99.90
2023-02-28T00:16:23.070Z,99.90
2023-02-28T00:18:51.038Z,99.90
2023-02-28T00:21:19.645Z,99.90
2023-02-28T00:23:46.599Z,99.90
2023-02-28T00:26:13.732Z,99.90
2023-02-28T00:28:40.563Z,99.90
2023-02-28T00:31:07.456Z,99.90
2023-02-28T00:33:34.285Z,99.90
2023-02-28T00:36:10.844Z,99.90
2023-02-28T00:38:39.118Z,99.90
2023-02-28T00:41:06.832Z,99.90
2023-02-28T00:43:35.660Z,99.90
2023-02-28T00:46:03.733Z,99.90
2023-02-28T00:48:30.645Z,99.90
2023-02-28T00:50:57.507Z,99.90
2023-02-28T00:53:24.359Z,99.90
2023-02-28T00:55:51.766Z,99.90
2023-02-28T00:58:19.069Z,99.90
2023-02-28T01:00:49.858Z,99.90
2023-02-28T01:03:21.823Z,99.90
2023-02-28T01:05:48.686Z,99.90
2023-02-28T01:08:16.058Z,99.90
2023-02-28T01:10:43.758Z,99.90
2023-02-28T01:13:10.759Z,99.90
2023-02-28T01:15:46.953Z,99.90
2023-02-28T01:18:13.849Z,99.90
2023-02-28T01:20:40.836Z,99.90
2023-02-28T01:23:07.743Z,99.90
2023-02-28T01:25:36.918Z,99.90
2023-02-28T01:28:04.057Z,99.90
2023-02-28T01:30:31.520Z,99.90
2023-02-28T01:32:58.899Z,99.90
2023-02-28T01:35:25.966Z,99.90
2023-02-28T01:37:52.864Z,99.90
2023-02-28T01:40:19.737Z,99.90
2023-02-28T01:42:46.536Z,99.90
2023-02-28T01:45:26.741Z,99.90
2023-02-28T01:47:58.028Z,99.90
2023-02-28T01:50:29.791Z,99.90
2023-02-28T01:53:02.808Z,99.90
2023-02-28T01:55:30.994Z,99.90
2023-02-28T01:58:01.617Z,99.90
2023-02-28T02:00:30.137Z,99.90
2023-02-28T02:03:04.939Z,99.90
2023-02-28T02:05:32.364Z,99.90
2023-02-28T02:08:14.068Z,99.90
2023-02-28T02:10:46.007Z,99.90
2023-02-28T02:13:47.960Z,99.90
2023-02-28T02:16:39.553Z,99.90
2023-02-28T02:19:37.611Z,99.90
2023-02-28T02:23:01.487Z,99.90
2023-02-28T02:26:19.861Z,99.90
2023-02-28T02:28:57.833Z,99.90
2023-02-28T02:31:53.002Z,99.90
2023-02-28T02:34:41.409Z,99.90
2023-02-28T02:37:22.886Z,99.90
2023-02-28T02:40:12.379Z,99.90
2023-02-28T02:42:59.977Z,99.90
2023-02-28T02:45:41.047Z,99.90
2023-02-28T02:48:14.063Z,99.90
2023-02-28T02:50:47.919Z,99.90
2023-02-28T02:53:19.353Z,99.90
2023-02-28T02:55:53.973Z,99.90
2023-02-28T02:58:27.443Z,99.90
2023-02-28T03:01:00.249Z,99.90
2023-02-28T03:03:31.747Z,99.90
2023-02-28T03:06:03.865Z,99.90
2023-02-28T03:08:37.462Z,99.90
2023-02-28T03:11:16.467Z,99.90
2023-02-28T03:14:28.026Z,99.90
2023-02-28T03:17:17.656Z,99.90
2023-02-28T03:20:11.872Z,99.90
2023-02-28T03:22:58.842Z,99.90
2023-02-28T03:25:48.736Z,99.90
2023-02-28T03:28:38.620Z,99.90
2023-02-28T03:31:17.731Z,99.90
2023-02-28T03:34:15.055Z,99.90
2023-02-28T03:36:50.741Z,99.90
2023-02-28T03:39:30.060Z,99.90
2023-02-28T03:42:03.013Z,99.90
2023-02-28T03:44:47.577Z,99.90
2023-02-28T03:47:23.504Z,99.90
2023-02-28T03:50:11.614Z,99.90
2023-02-28T03:52:50.004Z,99.90
2023-02-28T03:55:18.719Z,99.90
2023-02-28T03:58:03.054Z,99.90
2023-02-28T04:00:39.243Z,99.90
2023-02-28T04:03:06.560Z,99.90
2023-02-28T04:05:34.158Z,99.90
2023-02-28T04:08:09.122Z,99.90
2023-02-28T04:10:36.026Z,99.90
2023-02-28T04:13:02.823Z,99.90
2023-02-28T04:15:29.684Z,99.90
2023-02-28T04:17:56.486Z,99.90
2023-02-28T04:20:23.326Z,99.90
2023-02-28T04:22:50.148Z,99.90
2023-02-28T04:25:17.039Z,99.90
2023-02-28T04:27:45.470Z,99.90
2023-02-28T04:30:13.124Z,99.90
2023-02-28T04:32:39.984Z,99.90
2023-02-28T04:35:07.519Z,99.90
2023-02-28T04:37:35.728Z,99.90
2023-02-28T04:40:03.773Z,99.90
2023-02-28T04:42:36.419Z,99.90
2023-02-28T04:45:04.852Z,99.90
2023-02-28T04:47:31.819Z,99.90
2023-02-28T04:49:59.192Z,99.90
2023-02-28T04:52:26.029Z,99.90
2023-02-28T04:54:52.885Z,99.90
2023-02-28T04:57:19.662Z,99.90
2023-02-28T04:59:46.591Z,99.90
2023-02-28T05:02:22.237Z,99.90
2023-02-28T05:04:49.150Z,99.90
2023-02-28T05:07:16.091Z,99.90
2023-02-28T05:09:42.920Z,99.90
2023-02-28T05:12:10.737Z,99.90
2023-02-28T05:14:37.637Z,99.90
2023-02-28T05:17:04.469Z,99.90
2023-02-28T05:19:31.260Z,99.90
2023-02-28T05:21:58.281Z,99.90
2023-02-28T05:24:25.195Z,99.90
2023-02-28T05:26:54.326Z,99.90
2023-02-28T05:29:21.677Z,99.90
2023-02-28T05:31:48.737Z,99.90
2023-02-28T05:34:17.069Z,99.90
2023-02-28T05:36:44.139Z,99.90
2023-02-28T05:39:13.519Z,99.90
2023-02-28T05:41:44.186Z,99.90
2023-02-28T05:44:11.786Z,99.90
2023-02-28T05:46:39.526Z,99.90
2023-02-28T05:49:06.490Z,99.90
2023-02-28T05:51:35.376Z,99.90
2023-02-28T05:54:03.307Z,99.90
2023-02-28T05:56:30.789Z,99.90
2023-02-28T05:58:58.065Z,99.90
2023-02-28T06:01:36.955Z,99.90
2023-02-28T06:04:06.606Z,99.90
2023-02-28T06:06:36.858Z,99.90
2023-02-28T06:09:06.128Z,99.90
2023-02-28T06:11:33.695Z,99.90
2023-02-28T06:14:01.815Z,99.90
2023-02-28T06:16:31.170Z,99.90
2023-02-28T06:19:04.283Z,99.90
2023-02-28T06:21:32.295Z,99.90
2023-02-28T06:24:00.349Z,99.90
2023-02-28T06:26:27.698Z,99.90
2023-02-28T06:28:55.215Z,99.90
2023-02-28T06:31:23.084Z,99.90
2023-02-28T06:33:50.349Z,99.90
2023-02-28T06:36:18.202Z,99.90
2023-02-28T06:38:46.426Z,99.90
2023-02-28T06:41:13.287Z,99.90
2023-02-28T06:43:42.968Z,99.90
2023-02-28T06:46:14.654Z,99.90
2023-02-28T06:48:44.575Z,99.90
2023-02-28T06:51:18.642Z,99.90
2023-02-28T06:53:45.579Z,99.90
2023-02-28T06:56:17.119Z,99.90
2023-02-28T06:58:51.690Z,99.90
2023-02-28T07:01:18.668Z,99.90
2023-02-28T07:03:46.098Z,99.90
2023-02-28T07:06:13.185Z,99.90
2023-02-28T07:08:41.948Z,99.90
2023-02-28T07:11:08.771Z,99.90
2023-02-28T07:13:35.595Z,99.90
2023-02-28T07:16:08.693Z,99.90
2023-02-28T07:18:36.720Z,99.90
2023-02-28T07:21:06.615Z,99.90
2023-02-28T07:23:33.712Z,99.90
2023-02-28T07:26:00.605Z,99.90
2023-02-28T07:28:28.300Z,99.90
2023-02-28T07:30:55.097Z,99.90
2023-02-28T07:33:21.946Z,99.90
2023-02-28T07:35:48.893Z,99.90
2023-02-28T07:38:16.378Z,99.90
2023-02-28T07:40:43.234Z,99.90
2023-02-28T07:43:10.202Z,99.90
2023-02-28T07:45:41.222Z,99.90
2023-02-28T07:48:10.895Z,99.90
2023-02-28T07:50:37.886Z,99.90
2023-02-28T07:53:05.438Z,99.90
2023-02-28T07:55:32.242Z,99.90
2023-02-28T07:57:59.468Z,99.90
2023-02-28T08:00:26.453Z,99.90
2023-02-28T08:02:53.257Z,99.90
2023-02-28T08:05:22.185Z,99.90
2023-02-28T08:07:50.872Z,99.90
2023-02-28T08:10:18.038Z,99.90
2023-02-28T08:12:44.935Z,99.90
2023-02-28T08:15:11.944Z,99.90
2023-02-28T08:17:38.963Z,99.90
2023-02-28T08:20:06.634Z,99.90
2023-02-28T08:22:33.482Z,99.90
2023-02-28T08:25:00.293Z,99.90
2023-02-28T08:27:27.091Z,99.90
2023-02-28T08:29:53.885Z,99.90
2023-02-28T08:32:29.262Z,99.90
2023-02-28T08:34:57.065Z,99.90
2023-02-28T08:37:24.256Z,99.90
2023-02-28T08:39:51.075Z,99.90
2023-02-28T08:42:17.910Z,99.90
2023-02-28T08:44:44.771Z,99.90
2023-02-28T08:47:11.636Z,99.90
2023-02-28T08:49:38.712Z,99.90
2023-02-28T08:52:05.579Z,99.90
2023-02-28T08:54:34.205Z,99.90
2023-02-28T08:57:01.445Z,99.90
2023-02-28T08:59:28.242Z,99.90
2023-02-28T09:01:55.033Z,99.90
2023-02-28T09:04:23.410Z,99.90
2023-02-28T09:06:51.830Z,99.90
2023-02-28T09:09:18.687Z,99.90
2023-02-28T09:11:45.512Z,99.90
2023-02-28T09:14:12.388Z,99.90
2023-02-28T09:16:39.290Z,99.90
2023-02-28T09:19:06.138Z,99.90
2023-02-28T09:21:33.005Z,99.90
2023-02-28T09:23:59.817Z,99.90
2023-02-28T09:26:34.858Z,99.90
2023-02-28T09:29:09.556Z,99.90
2023-02-28T09:31:36.634Z,99.90
2023-02-28T09:34:05.098Z,99.90
2023-02-28T09:36:43.678Z,99.90
2023-02-28T09:39:11.325Z,99.90
2023-02-28T09:41:48.306Z,99.90
2023-02-28T09:44:30.008Z,99.90
2023-02-28T09:47:02.763Z,99.90
2023-02-28T09:49:43.853Z,99.90
2023-02-28T09:52:18.917Z,99.90
2023-02-28T09:54:46.172Z,99.90
2023-02-28T09:57:41.343Z,99.90
2023-02-28T10:00:39.981Z,99.90
2023-02-28T10:03:58.881Z,99.90
2023-02-28T10:06:37.777Z,99.90
2023-02-28T10:09:17.596Z,99.90
2023-02-28T10:14:19.764Z,99.70
2023-02-28T10:17:03.811Z,99.90
2023-02-28T10:19:55.365Z,99.90
2023-02-28T10:22:38.117Z,99.50
2023-02-28T10:25:25.214Z,99.90
2023-02-28T10:28:01.877Z,98.70
2023-02-28T10:30:29.107Z,99.90
2023-02-28T10:32:56.321Z,98.40
2023-02-28T10:35:26.625Z,98.20
2023-02-28T10:37:59.006Z,98.30
2023-02-28T10:40:25.717Z,99.10
2023-02-28T10:43:27.605Z,99.90
2023-02-28T10:46:01.102Z,99.00
2023-02-28T10:48:37.721Z,98.90
2023-02-28T10:51:08.100Z,99.80
2023-02-28T10:54:00.007Z,97.50
2023-02-28T10:56:29.027Z,97.00
2023-02-28T10:59:27.959Z,97.30
2023-02-28T11:01:55.090Z,95.70
2023-02-28T11:04:41.230Z,95.60
2023-02-28T11:07:23.025Z,96.20
2023-02-28T11:09:56.891Z,97.30
2023-02-28T11:12:43.447Z,95.20
2023-02-28T11:15:32.278Z,95.40
2023-02-28T11:18:09.924Z,95.80
2023-02-28T11:20:37.032Z,96.00
2023-02-28T11:23:05.690Z,95.70
2023-02-28T11:25:39.261Z,95.90
2023-02-28T11:28:26.129Z,95.90
2023-02-28T11:31:20.429Z,95.80
2023-02-28T11:33:56.754Z,96.20
2023-02-28T11:36:28.333Z,96.10
2023-02-28T11:39:11.245Z,96.10
2023-02-28T11:42:45.490Z,95.90
2023-02-28T11:45:32.476Z,94.60
2023-02-28T11:48:19.910Z,94.90
2023-02-28T11:51:20.526Z,95.10
2023-02-28T11:54:24.531Z,93.70
2023-02-28T11:56:59.828Z,92.20
2023-02-28T11:59:46.117Z,91.70
2023-02-28T12:02:26.307Z,91.50
2023-02-28T12:05:17.058Z,91.30
2023-02-28T12:08:20.975Z,90.90
2023-02-28T12:11:20.571Z,87.60
2023-02-28T12:14:05.109Z,90.60
2023-02-28T12:16:56.914Z,83.10
2023-02-28T12:19:45.666Z,81.20
2023-02-28T12:23:18.113Z,84.00
2023-02-28T12:26:04.195Z,80.40
2023-02-28T12:28:39.113Z,73.80
2023-02-28T12:31:23.115Z,74.90
2023-02-28T12:34:07.036Z,76.30
2023-02-28T12:36:37.177Z,72.90
2023-02-28T12:39:17.382Z,73.30
2023-02-28T12:41:55.376Z,70.80
2023-02-28T12:44:49.802Z,72.00
2023-02-28T12:47:19.715Z,73.50
2023-02-28T12:50:05.735Z,69.50
2023-02-28T12:53:04.300Z,69.20
2023-02-28T12:55:49.146Z,68.30
2023-02-28T12:58:38.687Z,63.30
2023-02-28T13:01:40.492Z,61.20
2023-02-28T13:04:43.543Z,62.60
2023-02-28T13:07:54.657Z,60.30
2023-02-28T13:10:21.695Z,57.00
2023-02-28T13:12:54.031Z,59.10
2023-02-28T13:15:28.922Z,56.90
2023-02-28T13:18:00.637Z,57.50
2023-02-28T13:20:35.724Z,55.00
2023-02-28T13:23:03.238Z,55.60
2023-02-28T13:25:39.009Z,55.30
2023-02-28T13:28:15.312Z,55.80
2023-02-28T13:30:58.186Z,55.80
2023-02-28T13:33:34.800Z,55.80
2023-02-28T13:36:15.361Z,54.80
2023-02-28T13:39:07.850Z,55.80
2023-02-28T13:41:35.324Z,55.90
2023-02-28T13:44:11.123Z,55.50
2023-02-28T13:46:58.596Z,52.50
2023-02-28T13:49:34.738Z,53.50
2023-02-28T13:52:07.421Z,53.30
2023-02-28T13:54:56.911Z,51.70
2023-02-28T13:58:23.429Z,52.40
2023-02-28T14:01:17.132Z,51.80
2023-02-28T14:04:07.553Z,53.10
2023-02-28T14:06:36.872Z,51.60
2023-02-28T14:09:12.744Z,52.90
2023-02-28T14:11:42.070Z,54.60
2023-02-28T14:14:35.893Z,56.00
2023-02-28T14:17:15.541Z,55.40
2023-02-28T14:19:48.932Z,54.30
2023-02-28T14:22:36.827Z,56.00
2023-02-28T14:25:19.527Z,54.30
2023-02-28T14:28:17.230Z,53.30
2023-02-28T14:30:57.857Z,55.50
2023-02-28T14:33:30.076Z,55.90
2023-02-28T14:36:40.201Z,54.00
2023-02-28T14:39:20.940Z,52.10
2023-02-28T14:41:48.669Z,51.10
2023-02-28T14:44:25.455Z,52.80
2023-02-28T14:47:06.469Z,56.00
2023-02-28T14:49:46.580Z,56.70
2023-02-28T14:52:22.011Z,56.20
2023-02-28T14:55:01.324Z,55.20
2023-02-28T14:57:40.409Z,53.40
2023-02-28T15:00:25.786Z,53.70
2023-02-28T15:02:54.439Z,52.70
2023-02-28T15:05:31.636Z,52.50
2023-02-28T15:08:15.423Z,52.70
2023-02-28T15:10:46.452Z,53.20
2023-02-28T15:13:16.159Z,54.20
2023-02-28T15:16:01.311Z,55.30
2023-02-28T15:18:50.387Z,55.30
2023-02-28T15:21:33.750Z,53.60
2023-02-28T15:24:14.658Z,54.20
2023-02-28T15:26:47.667Z,54.10
2023-02-28T15:29:18.484Z,56.40
2023-02-28T15:31:57.412Z,56.00
2023-02-28T15:34:44.064Z,56.40
2023-02-28T15:37:36.814Z,55.30
2023-02-28T15:40:27.751Z,56.80
2023-02-28T15:43:24.904Z,58.90
2023-02-28T15:45:57.550Z,60.80
2023-02-28T15:48:30.167Z,63.10
2023-02-28T15:51:09.421Z,65.20
2023-02-28T15:54:11.919Z,68.50
2023-02-28T15:56:48.540Z,69.70
2023-02-28T15:59:23.251Z,70.10
2023-02-28T16:02:43.432Z,69.90
2023-02-28T16:05:10.218Z,71.70
2023-02-28T16:07:43.001Z,72.10
2023-02-28T16:10:14.985Z,73.60
2023-02-28T16:12:42.741Z,74.30
2023-02-28T16:15:29.521Z,74.90
2023-02-28T16:17:58.212Z,76.30
2023-02-28T16:20:27.870Z,77.30
2023-02-28T16:22:55.424Z,78.30
2023-02-28T16:25:35.612Z,79.70
2023-02-28T16:28:03.468Z,80.80
2023-02-28T16:30:34.046Z,81.80
2023-02-28T16:33:01.298Z,81.80
2023-02-28T16:35:28.292Z,82.50
2023-02-28T16:37:55.463Z,83.60
2023-02-28T16:40:26.571Z,84.20
2023-02-28T16:42:59.495Z,85.10
2023-02-28T16:45:29.546Z,86.20
2023-02-28T16:47:57.148Z,86.90
2023-02-28T16:50:27.767Z,87.10
2023-02-28T16:52:56.168Z,87.70
2023-02-28T16:55:25.286Z,88.20
2023-02-28T16:57:58.855Z,89.10
2023-02-28T17:00:28.540Z,90.70
2023-02-28T17:02:56.764Z,91.90
2023-02-28T17:05:24.875Z,92.40
2023-02-28T17:07:51.771Z,92.70
2023-02-28T17:10:18.479Z,93.20
2023-02-28T17:12:45.294Z,93.80
2023-02-28T17:15:15.429Z,94.20
2023-02-28T17:17:43.835Z,94.60
2023-02-28T17:20:28.692Z,95.30
2023-02-28T17:22:57.011Z,95.80
2023-02-28T17:25:25.385Z,96.40
2023-02-28T17:27:52.371Z,96.90
2023-02-28T17:30:30.122Z,97.40
2023-02-28T17:32:57.614Z,97.90
2023-02-28T17:35:25.309Z,98.30
2023-02-28T17:37:52.266Z,98.70
2023-02-28T17:40:23.180Z,99.00
2023-02-28T17:42:50.386Z,99.60
2023-02-28T17:45:17.401Z,99.90
2023-02-28T17:47:49.182Z,99.90
2023-02-28T17:50:20.170Z,99.90
2023-02-28T17:52:47.284Z,99.90
2023-02-28T17:55:14.671Z,99.90
2023-02-28T17:57:42.859Z,99.90
2023-02-28T18:00:14.481Z,99.90
2023-02-28T18:02:41.477Z,99.90
2023-02-28T18:05:09.079Z,99.90
2023-02-28T18:07:39.256Z,99.90
2023-02-28T18:10:09.300Z,99.90
2023-02-28T18:12:36.170Z,99.90
2023-02-28T18:15:03.174Z,99.90
2023-02-28T18:17:29.976Z,99.90
2023-02-28T18:19:56.902Z,99.90
2023-02-28T18:22:23.894Z,99.90
2023-02-28T18:24:50.816Z,99.90
2023-02-28T18:27:17.728Z,99.90
2023-02-28T18:29:44.686Z,99.90
2023-02-28T18:32:11.636Z,99.90
2023-02-28T18:34:38.607Z,99.90
2023-02-28T18:37:05.472Z,99.90
2023-02-28T18:39:32.465Z,99.90
2023-02-28T18:41:59.349Z,99.90
2023-02-28T18:44:26.231Z,99.90
2023-02-28T18:46:53.413Z,99.90
2023-02-28T18:49:20.571Z,99.90
2023-02-28T18:51:47.778Z,99.90
2023-02-28T18:54:16.821Z,99.90
2023-02-28T18:56:44.010Z,99.90
2023-02-28T18:59:11.395Z,99.90
2023-02-28T19:01:39.121Z,99.90
2023-02-28T19:04:06.535Z,99.90
2023-02-28T19:06:34.207Z,99.90
2023-02-28T19:09:03.680Z,99.90
2023-02-28T19:11:31.386Z,99.90
2023-02-28T19:13:58.503Z,99.90
2023-02-28T19:16:27.801Z,99.90
2023-02-28T19:18:55.611Z,99.90
2023-02-28T19:21:24.720Z,99.90
2023-02-28T19:23:51.692Z,99.90
2023-02-28T19:26:23.123Z,99.90
2023-02-28T19:28:50.681Z,99.90
2023-02-28T19:31:22.474Z,99.90
2023-02-28T19:33:49.665Z,99.90
2023-02-28T19:36:16.763Z,99.90
2023-02-28T19:38:44.782Z,99.90
2023-02-28T19:41:14.664Z,99.90
2023-02-28T19:43:42.056Z,99.90
2023-02-28T19:46:09.731Z,99.90
2023-02-28T19:48:37.060Z,99.90
2023-02-28T19:51:09.112Z,99.90
2023-02-28T19:53:38.755Z,99.90
2023-02-28T19:56:07.267Z,99.90
2023-02-28T19:58:34.731Z,99.90
2023-02-28T20:01:14.578Z,99.90
2023-02-28T20:03:42.964Z,99.90
2023-02-28T20:06:13.859Z,99.90
2023-02-28T20:08:41.198Z,99.90
2023-02-28T20:11:16.354Z,99.90
2023-02-28T20:13:44.586Z,99.90
2023-02-28T20:16:12.573Z,99.90
2023-02-28T20:18:41.122Z,99.90
2023-02-28T20:21:09.953Z,99.90
2023-02-28T20:23:41.786Z,99.90
2023-02-28T20:26:09.957Z,99.90
2023-02-28T20:28:38.400Z,99.90
2023-02-28T20:31:18.742Z,99.90
2023-02-28T20:33:47.022Z,99.90
2023-02-28T20:36:16.083Z,99.90
2023-02-28T20:38:43.485Z,99.90
2023-02-28T20:41:10.372Z,99.90
2023-02-28T20:43:37.272Z,99.90
2023-02-28T20:46:04.466Z,99.90
2023-02-28T20:48:33.735Z,99.90
2023-02-28T20:51:00.839Z,99.90
2023-02-28T20:53:29.284Z,99.90
2023-02-28T20:55:58.151Z,99.90
2023-02-28T20:58:28.292Z,99.90
2023-02-28T21:01:15.909Z,99.90
2023-02-28T21:03:45.282Z,99.90
2023-02-28T21:06:13.089Z,99.90
2023-02-28T21:08:40.706Z,99.90
2023-02-28T21:11:16.843Z,99.90
2023-02-28T21:13:45.620Z,99.90
2023-02-28T21:16:17.517Z,99.90
2023-02-28T21:18:44.889Z,99.90
2023-02-28T21:21:18.208Z,99.90
2023-02-28T21:23:46.657Z,99.90
2023-02-28T21:26:19.896Z,99.90
2023-02-28T21:28:59.110Z,99.90
2023-02-28T21:31:28.906Z,99.90
2023-02-28T21:33:58.203Z,99.90
2023-02-28T21:36:33.074Z,99.90
2023-02-28T21:39:04.955Z,99.90
2023-02-28T21:41:31.779Z,99.90
2023-02-28T21:43:58.592Z,99.90
2023-02-28T21:46:28.896Z,99.90
2023-02-28T21:48:56.853Z,99.90
2023-02-28T21:51:31.119Z,99.90
2023-02-28T21:54:01.948Z,99.90
2023-02-28T21:56:32.803Z,99.90
2023-02-28T21:59:00.703Z,99.90
2023-02-28T22:01:34.882Z,99.90
2023-02-28T22:04:03.910Z,99.90
2023-02-28T22:06:39.347Z,99.90
2023-02-28T22:09:08.845Z,99.90
2023-02-28T22:11:38.003Z,99.90
2023-02-28T22:14:06.566Z,99.90
2023-02-28T22:16:49.551Z,99.90
2023-02-28T22:19:18.323Z,99.90
2023-02-28T22:21:45.716Z,99.90
2023-02-28T22:24:12.765Z,99.90
2023-02-28T22:26:39.583Z,99.90
2023-02-28T22:29:06.697Z,99.90
2023-02-28T22:31:35.472Z,99.90
2023-02-28T22:34:07.893Z,99.90
2023-02-28T22:36:35.157Z,99.90
2023-02-28T22:39:02.249Z,99.90
2023-02-28T22:41:29.684Z,99.90
2023-02-28T22:44:00.166Z,99.90
2023-02-28T22:46:30.034Z,99.90
2023-02-28T22:48:59.797Z,99.90
2023-02-28T22:51:28.238Z,99.90
2023-02-28T22:53:56.678Z,99.90
2023-02-28T22:56:26.044Z,99.90
2023-02-28T22:58:56.115Z,99.90
2023-02-28T23:01:26.218Z,99.90
2023-02-28T23:03:53.578Z,99.90
2023-02-28T23:06:29.956Z,99.90
2023-02-28T23:09:01.230Z,99.90
2023-02-28T23:11:33.345Z,99.90
2023-02-28T23:14:00.758Z,99.90
2023-02-28T23:16:31.837Z,99.90
2023-02-28T23:19:02.547Z,99.90
2023-02-28T23:21:30.207Z,99.90
2023-02-28T23:23:57.370Z,99.90
2023-02-28T23:26:24.393Z,99.90
2023-02-28T23:28:51.232Z,99.90
2023-02-28T23:31:18.113Z,99.90
2023-02-28T23:33:44.999Z,99.90
2023-02-28T23:36:14.908Z,99.90
2023-02-28T23:38:45.716Z,99.90
2023-02-28T23:41:14.029Z,99.90
2023-02-28T23:43:41.225Z,99.90
2023-02-28T23:46:10.058Z,99.90
2023-02-28T23:48:37.312Z,99.90
2023-02-28T23:51:08.465Z,99.90
2023-02-28T23:53:41.247Z,99.90
2023-02-28T23:56:11.760Z,99.90
2023-02-28T23:58:38.558Z,99.90
